Celina, Tennessee
Current Conditions -  °F | °C
As of 12:15 PM on Saturday 25 Oct 2014 (Local Time) from KSRB Reporting Station
Clear Clear  
Wind Chill: 21°   Ceiling: Unl
Heat Index: 21°   Visibility: 10mi
Dew Point: 12°   Wind: 3mph
Humidity: 56%   Direction: NA
Pressure: 30.07"   Gusts: NA
Location:  36.55°N, 85.51°W
Report Text: KSRB 251715Z AUTO VRB03KT 10SM CLR 21/12 A3007 RMK
Loading
Personal Weather Stations






























Interactive Weather Map
Tropical Storm Tracking
New forecast layout! Learn more

10-Day Weather Forecast

Advertisements
Track Severe Weather on mobile